Time;durP1;ratioP1;P1;durP2;ratioP2;P2;SDS_P1;SDS_P2;PMS_P1;PMS_P2;Temp;Humidity;BMP_temperature;BMP_pressure;BME280_temperature;BME280_humidity;BME280_pressure;Samples;Min_cycle;Max_cycle;Signal;HPM_P1;HPM_P2
2023/02/04 00:00:22;;;;;;;0.73;0.70;;;7.00;88.00;;;;;;5032039;28;20041;-61
2023/02/04 00:02:48;;;;;;;1.00;0.90;;;7.00;88.20;;;;;;5033387;28;20086;-61
2023/02/04 00:05:17;;;;;;;1.50;0.60;;;7.00;88.10;;;;;;5031575;28;20061;-61
2023/02/04 00:07:42;;;;;;;1.00;0.73;;;7.00;88.20;;;;;;5035071;28;20107;-60
2023/02/04 00:10:09;;;;;;;0.70;0.70;;;7.00;88.10;;;;;;5031318;28;20416;-61
2023/02/04 00:12:34;;;;;;;1.25;0.70;;;7.00;88.30;;;;;;5022435;28;20571;-59
2023/02/04 00:15:00;;;;;;;0.90;0.90;;;7.00;88.40;;;;;;5033369;28;20039;-60
2023/02/04 00:17:26;;;;;;;0.93;0.80;;;6.90;88.50;;;;;;5027938;28;20058;-60
2023/02/04 00:19:51;;;;;;;1.42;0.90;;;7.00;88.50;;;;;;5033489;28;20380;-59
2023/02/04 00:22:17;;;;;;;1.85;0.90;;;7.00;88.80;;;;;;5034241;28;20489;-60
2023/02/04 00:24:47;;;;;;;1.05;0.82;;;6.90;88.60;;;;;;5034965;28;20501;-60
2023/02/04 00:27:13;;;;;;;0.90;0.80;;;7.00;88.80;;;;;;5036322;28;20032;-61
2023/02/04 00:29:39;;;;;;;1.88;0.88;;;7.00;88.80;;;;;;5036699;28;20045;-59
2023/02/04 00:32:04;;;;;;;1.10;0.90;;;7.00;88.60;;;;;;5025690;28;20511;-61
2023/02/04 00:34:30;;;;;;;0.70;0.70;;;7.00;88.60;;;;;;5023971;28;20284;-60
2023/02/04 00:36:56;;;;;;;1.85;0.90;;;7.00;88.80;;;;;;5035735;28;20663;-62
2023/02/04 00:39:21;;;;;;;1.17;0.70;;;7.00;88.60;;;;;;5037205;28;20045;-61
2023/02/04 00:41:47;;;;;;;0.60;0.60;;;7.00;88.60;;;;;;5023462;28;20120;-62
2023/02/04 00:44:13;;;;;;;1.52;1.13;;;7.00;88.50;;;;;;5029463;28;20033;-60
2023/02/04 00:46:39;;;;;;;0.65;0.60;;;7.00;88.40;;;;;;5026875;28;20706;-59
2023/02/04 00:49:09;;;;;;;0.90;0.70;;;7.00;88.40;;;;;;5026474;28;20038;-62
2023/02/04 00:51:38;;;;;;;1.27;0.52;;;7.10;88.50;;;;;;5032293;28;20029;-61
2023/02/04 00:54:05;;;;;;;1.13;0.80;;;7.10;88.80;;;;;;5035264;28;20091;-61
2023/02/04 00:56:30;;;;;;;0.70;0.60;;;7.10;88.70;;;;;;5035816;28;20091;-62
2023/02/04 00:58:56;;;;;;;0.63;0.63;;;7.10;88.60;;;;;;5032229;28;20045;-60
2023/02/04 01:01:21;;;;;;;0.63;0.63;;;7.00;88.60;;;;;;5036001;28;20333;-62
2023/02/04 01:03:47;;;;;;;1.80;0.80;;;7.10;88.70;;;;;;5034581;28;20447;-60
2023/02/04 01:06:13;;;;;;;1.08;0.82;;;7.10;88.60;;;;;;5030949;28;20398;-61
2023/02/04 01:08:38;;;;;;;0.70;0.70;;;7.10;88.80;;;;;;5027860;28;20129;-60
2023/02/04 01:11:04;;;;;;;0.70;0.65;;;7.00;88.80;;;;;;5023919;28;20045;-63
2023/02/04 01:13:29;;;;;;;0.88;0.80;;;7.10;88.80;;;;;;5031563;28;20505;-61
2023/02/04 01:15:55;;;;;;;1.13;0.50;;;7.00;88.90;;;;;;5029152;28;20037;-63
2023/02/04 01:18:21;;;;;;;0.80;0.70;;;7.00;88.90;;;;;;5028229;28;20037;-61
2023/02/04 01:20:46;;;;;;;0.63;0.63;;;7.00;88.90;;;;;;5027267;28;20072;-62
2023/02/04 01:23:12;;;;;;;1.55;0.70;;;7.00;89.00;;;;;;5026215;28;20044;-62
2023/02/04 01:25:37;;;;;;;1.35;0.70;;;7.10;89.00;;;;;;5036455;28;20124;-60
2023/02/04 01:28:03;;;;;;;0.60;0.60;;;7.00;88.90;;;;;;5037433;28;20583;-62
2023/02/04 01:30:29;;;;;;;1.40;0.60;;;7.00;89.10;;;;;;5035545;28;20485;-62
2023/02/04 01:32:54;;;;;;;1.08;0.68;;;7.10;90.00;;;;;;5026061;28;20037;-61
2023/02/04 01:35:20;;;;;;;1.13;0.60;;;7.00;89.00;;;;;;5030859;28;20033;-61
2023/02/04 01:37:45;;;;;;;0.60;0.60;;;7.00;89.10;;;;;;5026920;28;20499;-60
2023/02/04 01:40:11;;;;;;;0.60;0.60;;;7.00;89.20;;;;;;5032776;28;20124;-62
2023/02/04 01:42:37;;;;;;;0.70;0.70;;;7.00;89.30;;;;;;5030798;28;20033;-62
2023/02/04 01:45:05;;;;;;;0.63;0.63;;;7.00;89.00;;;;;;5034464;28;20489;-61
2023/02/04 01:47:31;;;;;;;0.60;0.60;;;7.00;89.20;;;;;;5034537;28;20040;-62
2023/02/04 01:49:57;;;;;;;1.45;0.60;;;7.00;89.00;;;;;;5034122;28;20041;-59
2023/02/04 01:52:24;;;;;;;1.20;0.65;;;7.00;89.00;;;;;;5040011;28;20041;-62
2023/02/04 01:54:50;;;;;;;0.60;0.60;;;7.00;89.20;;;;;;5038065;28;20036;-62
2023/02/04 01:57:16;;;;;;;2.35;0.50;;;6.90;89.10;;;;;;5039026;28;20029;-61
2023/02/04 01:59:46;;;;;;;1.33;0.60;;;7.00;89.00;;;;;;5037759;28;20042;-60
2023/02/04 02:02:37;;;;;;;0.60;0.60;;;7.00;89.10;;;;;;5029487;28;20443;-62
2023/02/04 02:05:03;;;;;;;1.05;0.50;;;7.00;89.50;;;;;;5037279;28;20033;-60
2023/02/04 02:07:29;;;;;;;1.08;0.60;;;7.00;89.00;;;;;;5034400;28;20030;-61
2023/02/04 02:09:54;;;;;;;0.77;0.70;;;7.00;89.00;;;;;;5031528;28;20037;-60
2023/02/04 02:12:20;;;;;;;1.23;0.70;;;7.00;89.20;;;;;;5028554;28;20037;-59
2023/02/04 02:14:45;;;;;;;0.60;0.57;;;7.00;89.20;;;;;;5029505;28;20073;-61
2023/02/04 02:17:11;;;;;;;0.70;0.60;;;7.00;89.20;;;;;;5033008;28;20026;-58
2023/02/04 02:19:38;;;;;;;0.57;0.57;;;7.00;89.20;;;;;;5030454;28;20155;-59
2023/02/04 02:22:11;;;;;;;1.13;0.63;;;7.00;89.20;;;;;;5033174;28;20536;-62
2023/02/04 02:24:37;;;;;;;0.52;0.52;;;7.00;89.50;;;;;;5033403;28;20025;-61
2023/02/04 02:27:07;;;;;;;0.63;0.63;;;7.00;89.30;;;;;;5035684;28;20062;-61
2023/02/04 02:29:35;;;;;;;0.60;0.60;;;7.00;89.30;;;;;;5037213;28;20065;-62
2023/02/04 02:32:00;;;;;;;0.80;0.60;;;7.00;89.30;;;;;;5029915;28;20036;-61
2023/02/04 02:34:27;;;;;;;0.60;0.60;;;7.00;89.60;;;;;;5035349;28;20037;-60
2023/02/04 02:36:53;;;;;;;1.58;0.60;;;7.00;89.80;;;;;;5037607;28;20033;-62
2023/02/04 02:39:19;;;;;;;0.60;0.60;;;7.00;90.00;;;;;;5038806;28;20112;-61
2023/02/04 02:41:45;;;;;;;0.68;0.60;;;7.00;90.10;;;;;;5035792;28;20483;-62
2023/02/04 02:44:12;;;;;;;0.73;0.70;;;7.00;90.10;;;;;;5034384;28;20025;-60
2023/02/04 02:46:38;;;;;;;0.82;0.63;;;7.00;90.10;;;;;;5037161;28;20037;-61
2023/02/04 02:49:05;;;;;;;0.65;0.65;;;7.00;90.20;;;;;;5038216;28;20087;-58
2023/02/04 02:51:30;;;;;;;0.60;0.60;;;7.00;90.10;;;;;;5032868;28;20101;-60
2023/02/04 02:53:56;;;;;;;0.95;0.80;;;7.00;90.20;;;;;;5038020;28;20041;-61
2023/02/04 02:56:22;;;;;;;0.90;0.90;;;7.00;90.20;;;;;;5038903;28;20040;-62
2023/02/04 02:58:48;;;;;;;0.98;0.70;;;7.00;90.10;;;;;;5037064;28;20041;-60
2023/02/04 03:01:14;;;;;;;1.35;1.00;;;7.00;90.20;;;;;;5037971;28;20033;-58
2023/02/04 03:03:48;;;;;;;0.82;0.82;;;7.00;90.20;;;;;;5037432;28;20603;-59
2023/02/04 03:06:22;;;;;;;0.85;0.85;;;7.00;90.30;;;;;;5033712;28;20045;-60
2023/02/04 03:08:50;;;;;;;1.10;1.00;;;6.90;90.30;;;;;;5032100;28;20033;-60
2023/02/04 03:11:15;;;;;;;1.00;1.00;;;7.00;90.20;;;;;;5021457;28;20061;-60
2023/02/04 03:13:41;;;;;;;1.10;1.00;;;6.90;90.20;;;;;;5033909;28;20084;-63
2023/02/04 03:16:07;;;;;;;1.27;1.10;;;6.90;90.20;;;;;;5035283;28;20534;-63
2023/02/04 03:18:34;;;;;;;1.65;1.00;;;6.90;90.20;;;;;;5028363;28;20926;-59
2023/02/04 03:21:01;;;;;;;1.10;1.00;;;6.90;90.20;;;;;;5029607;28;20040;-62
2023/02/04 03:23:27;;;;;;;1.00;1.00;;;6.90;90.30;;;;;;5033542;28;20038;-61
2023/02/04 03:25:52;;;;;;;1.10;1.00;;;6.90;90.40;;;;;;5029406;28;20522;-62
2023/02/04 03:28:18;;;;;;;1.42;0.85;;;6.90;90.40;;;;;;5035276;28;20033;-61
2023/02/04 03:30:54;;;;;;;0.90;0.80;;;6.90;90.50;;;;;;5031695;28;20041;-61
2023/02/04 03:33:25;;;;;;;0.98;0.45;;;6.90;90.60;;;;;;5032758;28;20046;-61
2023/02/04 03:35:51;;;;;;;1.63;0.40;;;6.80;90.60;;;;;;5031358;28;20037;-62
2023/02/04 03:38:17;;;;;;;1.02;0.50;;;6.80;90.50;;;;;;5024600;28;20041;-63
2023/02/04 03:40:43;;;;;;;1.20;0.43;;;6.80;90.50;;;;;;5029024;28;20032;-61
2023/02/04 03:43:09;;;;;;;0.52;0.40;;;6.80;90.50;;;;;;5030789;28;20063;-62
2023/02/04 03:45:34;;;;;;;0.75;0.40;;;6.80;90.60;;;;;;5033992;28;20512;-62
2023/02/04 03:48:00;;;;;;;0.15;0.10;;;6.80;90.50;;;;;;5030972;28;20033;-62
2023/02/04 03:50:25;;;;;;;1.98;0.30;;;6.80;90.50;;;;;;5028197;28;20056;-62
2023/02/04 03:52:52;;;;;;;0.15;0.10;;;6.80;90.80;;;;;;5036012;28;20259;-62
2023/02/04 03:55:19;;;;;;;2.45;0.35;;;6.70;90.30;;;;;;5037585;28;20120;-62
2023/02/04 03:57:45;;;;;;;0.55;0.20;;;6.70;90.30;;;;;;5037269;28;20137;-60
2023/02/04 04:00:11;;;;;;;1.63;0.20;;;6.70;90.20;;;;;;5035867;28;20379;-62
2023/02/04 04:02:37;;;;;;;3.22;0.20;;;6.70;90.30;;;;;;5037043;28;20090;-62
2023/02/04 04:05:02;;;;;;;1.63;0.40;;;6.70;90.30;;;;;;5036554;28;20349;-61
2023/02/04 04:07:28;;;;;;;1.75;0.30;;;6.60;90.30;;;;;;5030275;28;20389;-60
2023/02/04 04:09:53;;;;;;;1.10;0.25;;;6.60;90.20;;;;;;5030331;28;20092;-60
2023/02/04 04:12:19;;;;;;;0.30;0.20;;;6.60;90.30;;;;;;5025158;28;20123;-60
2023/02/04 04:14:44;;;;;;;0.40;0.20;;;6.60;90.30;;;;;;5034526;28;20045;-62
2023/02/04 04:17:10;;;;;;;0.30;0.30;;;6.60;90.30;;;;;;5034198;28;20104;-59
2023/02/04 04:19:35;;;;;;;0.30;0.30;;;6.60;90.30;;;;;;5035163;28;20356;-61
2023/02/04 04:22:01;;;;;;;2.33;0.40;;;6.60;90.30;;;;;;5028244;28;20048;-62
2023/02/04 04:24:26;;;;;;;0.32;0.32;;;6.60;90.40;;;;;;5029862;28;20409;-59
2023/02/04 04:26:52;;;;;;;0.63;0.50;;;6.70;90.40;;;;;;5029242;28;20053;-60
2023/02/04 04:29:18;;;;;;;0.20;0.20;;;6.70;90.30;;;;;;5034802;28;20159;-61
2023/02/04 04:31:43;;;;;;;1.05;0.30;;;6.70;90.40;;;;;;5030393;28;20036;-60
2023/02/04 04:34:09;;;;;;;1.02;0.20;;;6.70;90.30;;;;;;5031758;28;20512;-59
2023/02/04 04:36:35;;;;;;;0.40;0.30;;;6.80;90.30;;;;;;5029980;28;20030;-59
2023/02/04 04:39:01;;;;;;;0.30;0.20;;;6.80;90.20;;;;;;5024563;28;20509;-60
2023/02/04 04:41:26;;;;;;;0.38;0.28;;;6.80;90.20;;;;;;5030784;28;20038;-61
2023/02/04 04:43:52;;;;;;;9.80;7.55;;;6.80;90.20;;;;;;5031681;28;20034;-60
2023/02/04 04:46:17;;;;;;;1.80;1.20;;;6.80;90.20;;;;;;5030447;28;20025;-61
2023/02/04 04:48:43;;;;;;;0.95;0.60;;;6.80;90.10;;;;;;5031872;28;20249;-61
2023/02/04 04:51:08;;;;;;;0.93;0.93;;;6.80;90.10;;;;;;5030629;28;20042;-61
2023/02/04 04:53:34;;;;;;;0.40;0.40;;;6.90;90.10;;;;;;5036931;28;20569;-62
2023/02/04 04:56:00;;;;;;;1.15;0.50;;;6.90;90.10;;;;;;5036385;28;20127;-61
2023/02/04 04:58:25;;;;;;;0.32;0.30;;;6.90;90.10;;;;;;5035316;28;20132;-62
2023/02/04 05:00:51;;;;;;;0.40;0.30;;;6.90;90.00;;;;;;5033479;28;20033;-61
2023/02/04 05:03:16;;;;;;;0.20;0.20;;;6.90;89.90;;;;;;5036162;28;20031;-62
2023/02/04 05:05:43;;;;;;;0.20;0.20;;;7.00;89.90;;;;;;5032057;28;20716;-62
2023/02/04 05:08:11;;;;;;;0.10;0.10;;;7.00;89.90;;;;;;5031412;28;20388;-59
2023/02/04 05:10:38;;;;;;;0.15;0.10;;;7.00;89.80;;;;;;5027741;28;20485;-60
2023/02/04 05:13:04;;;;;;;0.13;0.13;;;7.00;89.70;;;;;;5023728;28;20034;-60
2023/02/04 05:15:29;;;;;;;0.20;0.20;;;6.90;89.50;;;;;;5032597;28;20036;-60
2023/02/04 05:17:55;;;;;;;0.00;0.00;;;7.00;89.50;;;;;;5033912;28;20025;-60
2023/02/04 05:20:20;;;;;;;0.13;0.10;;;7.00;89.40;;;;;;5029483;28;20037;-62
2023/02/04 05:22:46;;;;;;;0.15;0.15;;;7.00;89.40;;;;;;5026391;28;20041;-59
2023/02/04 05:25:12;;;;;;;0.60;0.60;;;7.00;89.40;;;;;;5029418;28;20547;-60
2023/02/04 05:27:37;;;;;;;0.98;0.88;;;7.00;89.30;;;;;;5033896;28;20029;-61
2023/02/04 05:30:03;;;;;;;3.63;3.03;;;7.00;89.30;;;;;;5031970;28;20120;-61
2023/02/04 05:32:28;;;;;;;4.95;3.45;;;7.00;89.30;;;;;;5028065;28;20036;-60
2023/02/04 05:34:54;;;;;;;5.57;3.15;;;7.00;89.20;;;;;;5027531;28;20032;-61
2023/02/04 05:37:20;;;;;;;2.28;1.55;;;6.90;89.10;;;;;;5030838;28;20044;-59
2023/02/04 05:39:46;;;;;;;1.77;1.20;;;6.90;89.10;;;;;;5028630;28;20061;-60
2023/02/04 05:42:12;;;;;;;2.28;1.50;;;6.90;89.20;;;;;;5027769;28;20037;-60
2023/02/04 05:44:37;;;;;;;3.08;2.50;;;6.90;89.20;;;;;;5033490;28;20473;-60
2023/02/04 05:47:03;;;;;;;4.07;2.20;;;6.90;89.30;;;;;;5031107;28;20037;-62
2023/02/04 05:49:28;;;;;;;2.55;2.25;;;6.90;89.30;;;;;;5032303;28;20041;-61
2023/02/04 05:51:54;;;;;;;2.75;2.00;;;6.90;89.20;;;;;;5027258;28;20053;-61
2023/02/04 05:54:20;;;;;;;0.90;0.90;;;6.90;89.20;;;;;;5029251;28;20044;-60
2023/02/04 05:56:46;;;;;;;0.75;0.60;;;7.00;89.20;;;;;;5029832;28;20496;-60
2023/02/04 05:59:12;;;;;;;1.15;0.70;;;7.00;89.00;;;;;;5030982;28;20528;-59
2023/02/04 06:01:38;;;;;;;1.23;0.70;;;7.00;88.80;;;;;;5029436;28;20057;-58
2023/02/04 06:04:03;;;;;;;2.05;0.70;;;7.00;88.70;;;;;;5032159;28;20034;-61
2023/02/04 06:06:29;;;;;;;2.15;0.90;;;7.00;88.50;;;;;;5024898;28;20034;-60
2023/02/04 06:08:54;;;;;;;1.00;0.70;;;7.00;88.50;;;;;;5030512;28;20552;-56
2023/02/04 06:11:20;;;;;;;2.90;1.10;;;7.00;88.40;;;;;;5028193;28;20541;-61
2023/02/04 06:13:45;;;;;;;2.05;0.90;;;7.00;88.40;;;;;;5034014;28;20037;-61
2023/02/04 06:16:11;;;;;;;2.13;0.93;;;7.00;88.30;;;;;;5033624;28;20634;-59
2023/02/04 06:18:37;;;;;;;3.35;1.10;;;6.90;88.20;;;;;;5035224;28;20041;-60
2023/02/04 06:21:03;;;;;;;2.92;1.48;;;7.00;88.20;;;;;;5032659;28;20041;-59
2023/02/04 06:23:30;;;;;;;3.47;1.60;;;7.00;88.10;;;;;;5029729;28;20600;-61
2023/02/04 06:25:55;;;;;;;2.03;1.50;;;6.90;88.90;;;;;;5029373;28;20037;-58
2023/02/04 06:28:21;;;;;;;2.28;1.13;;;6.90;88.00;;;;;;5034663;28;20099;-60
2023/02/04 06:30:48;;;;;;;2.30;1.20;;;6.90;87.90;;;;;;5033967;28;20040;-59
2023/02/04 06:33:13;;;;;;;3.67;1.60;;;6.90;87.90;;;;;;5033881;28;20041;-60
2023/02/04 06:35:39;;;;;;;3.22;2.15;;;6.80;87.90;;;;;;5029170;28;20095;-62
2023/02/04 06:38:04;;;;;;;3.72;2.47;;;6.80;88.00;;;;;;5025493;28;20041;-60
2023/02/04 06:40:30;;;;;;;3.95;1.92;;;6.80;88.00;;;;;;5031327;28;20041;-58
2023/02/04 06:42:56;;;;;;;3.78;1.60;;;6.80;88.10;;;;;;5031134;28;20486;-60
2023/02/04 06:45:21;;;;;;;4.05;1.30;;;6.70;88.20;;;;;;5032056;28;20246;-60
2023/02/04 06:47:47;;;;;;;4.20;1.50;;;6.70;88.30;;;;;;5032804;28;20095;-59
2023/02/04 06:50:17;;;;;;;5.40;2.25;;;6.70;88.30;;;;;;5037088;28;20036;-61
2023/02/04 06:52:46;;;;;;;4.57;2.67;;;6.70;88.40;;;;;;5038204;28;20025;-62
2023/02/04 06:55:15;;;;;;;5.28;2.30;;;6.70;88.50;;;;;;5034464;28;20034;-62
2023/02/04 06:57:41;;;;;;;4.05;2.47;;;6.60;88.40;;;;;;5038139;28;20040;-62
2023/02/04 07:00:09;;;;;;;4.55;2.20;;;6.60;88.50;;;;;;5033403;28;20029;-62
2023/02/04 07:02:36;;;;;;;4.53;2.50;;;6.60;88.60;;;;;;5035521;28;20053;-62
2023/02/04 07:05:02;;;;;;;6.25;2.22;;;6.60;88.60;;;;;;5038300;28;20063;-62
2023/02/04 07:07:27;;;;;;;3.92;2.20;;;6.60;88.70;;;;;;5020023;28;20060;-62
2023/02/04 07:09:53;;;;;;;5.53;2.22;;;6.60;88.70;;;;;;5009632;28;20294;-61
2023/02/04 07:12:19;;;;;;;3.83;2.13;;;6.60;88.70;;;;;;5014066;28;20056;-60
2023/02/04 07:14:44;;;;;;;3.95;1.98;;;6.60;88.70;;;;;;5023426;28;20040;-59
2023/02/04 07:17:10;;;;;;;2.45;2.15;;;6.60;88.80;;;;;;5024079;28;20622;-60
2023/02/04 07:19:36;;;;;;;3.42;2.10;;;6.60;88.90;;;;;;5025517;28;20461;-60
2023/02/04 07:22:02;;;;;;;2.30;1.85;;;6.60;89.00;;;;;;5019863;28;20432;-61
2023/02/04 07:24:28;;;;;;;5.90;2.30;;;6.70;89.00;;;;;;5028511;28;20037;-61
2023/02/04 07:26:53;;;;;;;3.80;2.30;;;6.70;89.00;;;;;;5028406;28;20377;-61
2023/02/04 07:29:19;;;;;;;6.68;3.08;;;6.70;89.00;;;;;;5021119;28;20413;-60
2023/02/04 07:31:45;;;;;;;5.78;2.83;;;6.70;88.90;;;;;;5030038;28;20309;-60
2023/02/04 07:34:12;;;;;;;3.85;2.30;;;6.80;88.90;;;;;;5024120;28;20567;-60
2023/02/04 07:36:38;;;;;;;2.03;1.80;;;6.80;88.80;;;;;;5023160;28;20124;-60
2023/02/04 07:39:03;;;;;;;2.35;1.65;;;6.80;88.80;;;;;;5024412;28;20163;-60
2023/02/04 07:41:29;;;;;;;3.13;1.60;;;6.80;88.70;;;;;;5025963;28;20053;-60
2023/02/04 07:43:55;;;;;;;2.97;1.50;;;6.80;88.70;;;;;;5024640;28;20037;-58
2023/02/04 07:46:20;;;;;;;2.28;2.00;;;6.90;88.80;;;;;;5023837;28;20048;-58
2023/02/04 07:48:46;;;;;;;5.18;3.40;;;6.90;88.80;;;;;;5018563;28;20040;-60
2023/02/04 07:51:12;;;;;;;3.60;2.78;;;6.90;88.80;;;;;;5031469;28;20040;-59
2023/02/04 07:53:37;;;;;;;3.03;2.22;;;7.00;88.80;;;;;;5029523;28;20060;-60
2023/02/04 07:56:03;;;;;;;3.10;2.05;;;7.00;88.60;;;;;;5024641;28;20112;-59
2023/02/04 07:58:28;;;;;;;1.77;1.50;;;7.00;88.60;;;;;;5022115;28;20064;-59
2023/02/04 08:00:54;;;;;;;3.25;1.67;;;7.00;88.60;;;;;;5021767;28;20060;-60
2023/02/04 08:03:20;;;;;;;6.30;2.03;;;7.00;88.70;;;;;;5028713;28;20428;-59
2023/02/04 08:05:45;;;;;;;5.47;2.53;;;7.00;88.60;;;;;;5030929;28;20057;-61
2023/02/04 08:08:11;;;;;;;7.70;3.08;;;7.00;88.20;;;;;;5029723;28;20386;-60
2023/02/04 08:10:36;;;;;;;6.88;4.25;;;7.00;87.80;;;;;;5019719;28;20489;-62
2023/02/04 08:13:02;;;;;;;7.43;4.30;;;6.90;87.50;;;;;;5015987;28;20053;-61
2023/02/04 08:15:28;;;;;;;7.97;3.00;;;6.90;87.50;;;;;;5026868;28;20025;-59
2023/02/04 08:17:53;;;;;;;7.65;2.50;;;6.90;87.50;;;;;;5023798;28;20037;-60
2023/02/04 08:20:19;;;;;;;7.15;2.85;;;6.90;87.30;;;;;;5025354;28;20537;-58
2023/02/04 08:22:45;;;;;;;7.68;2.40;;;6.90;87.40;;;;;;5030298;28;20564;-62
2023/02/04 08:25:11;;;;;;;6.47;2.22;;;6.90;87.70;;;;;;5022648;28;20088;-59
2023/02/04 08:27:37;;;;;;;5.32;2.45;;;6.90;87.70;;;;;;5025774;28;20033;-60
2023/02/04 08:30:04;;;;;;;13.63;3.13;;;7.00;87.60;;;;;;5023717;28;20064;-62
2023/02/04 08:32:30;;;;;;;5.38;2.75;;;7.00;87.30;;;;;;5018760;28;20080;-59
2023/02/04 08:34:56;;;;;;;7.78;2.83;;;7.00;87.10;;;;;;5026465;28;20414;-61
2023/02/04 08:37:22;;;;;;;9.68;3.05;;;6.90;87.00;;;;;;5019601;28;20034;-62
2023/02/04 08:39:48;;;;;;;9.27;3.28;;;6.90;87.00;;;;;;5024598;28;20037;-62
2023/02/04 08:42:14;;;;;;;9.50;2.85;;;6.90;86.90;;;;;;5022798;28;20505;-61
2023/02/04 08:44:41;;;;;;;6.28;2.28;;;6.90;86.60;;;;;;5027064;28;20038;-62
2023/02/04 08:47:06;;;;;;;11.45;2.55;;;6.90;86.30;;;;;;5026273;28;20044;-62
2023/02/04 08:49:32;;;;;;;11.40;2.63;;;6.80;85.50;;;;;;5020681;28;20493;-58
2023/02/04 08:51:57;;;;;;;9.25;2.20;;;6.80;85.70;;;;;;5020987;28;20651;-59
2023/02/04 08:54:25;;;;;;;9.23;2.95;;;6.70;85.90;;;;;;5021337;28;20433;-59
2023/02/04 08:56:50;;;;;;;11.20;3.60;;;6.70;86.10;;;;;;5020591;28;20037;-60
2023/02/04 08:59:16;;;;;;;16.30;3.80;;;6.70;86.30;;;;;;5030788;28;20091;-58
2023/02/04 09:01:42;;;;;;;12.55;3.85;;;6.70;86.30;;;;;;5023017;28;20042;-60
2023/02/04 09:04:07;;;;;;;8.85;3.33;;;6.70;86.30;;;;;;5029223;28;20033;-60
2023/02/04 09:06:33;;;;;;;10.65;3.08;;;6.70;86.20;;;;;;5022637;28;20409;-58
2023/02/04 09:08:59;;;;;;;11.95;3.08;;;6.60;86.30;;;;;;5024303;28;20145;-60
2023/02/04 09:11:25;;;;;;;10.98;2.70;;;6.60;86.30;;;;;;5022035;28;20625;-59
2023/02/04 09:13:51;;;;;;;11.25;2.88;;;6.60;86.40;;;;;;5025900;28;20036;-60
2023/02/04 09:16:17;;;;;;;10.07;2.72;;;6.60;86.50;;;;;;5026157;28;20221;-60
2023/02/04 09:18:43;;;;;;;6.57;2.63;;;6.50;86.40;;;;;;5023623;28;20037;-60
2023/02/04 09:21:08;;;;;;;9.25;2.90;;;6.50;86.60;;;;;;5030063;28;20055;-62
2023/02/04 09:23:34;;;;;;;9.65;3.28;;;6.50;86.70;;;;;;5029361;28;20025;-60
2023/02/04 09:26:00;;;;;;;9.00;2.90;;;6.50;86.70;;;;;;5021735;28;20112;-61
2023/02/04 09:28:26;;;;;;;7.55;2.10;;;6.50;86.70;;;;;;5026488;28;20049;-61
2023/02/04 09:30:51;;;;;;;7.72;2.50;;;6.50;86.90;;;;;;5025340;28;20047;-61
2023/02/04 09:33:17;;;;;;;8.38;3.20;;;6.50;86.90;;;;;;5028753;28;20059;-57
2023/02/04 09:35:43;;;;;;;9.50;3.38;;;6.60;87.10;;;;;;5033414;28;20535;-61
2023/02/04 09:38:09;;;;;;;8.95;3.30;;;6.60;87.20;;;;;;5015801;28;20049;-59
2023/02/04 09:40:40;;;;;;;11.13;2.83;;;6.60;87.30;;;;;;5029200;28;20037;-58
2023/02/04 09:43:06;;;;;;;12.38;2.92;;;6.70;87.30;;;;;;5031536;28;20041;-60
2023/02/04 09:45:35;;;;;;;12.57;3.65;;;6.70;86.90;;;;;;5037530;28;20102;-61
2023/02/04 09:48:04;;;;;;;15.57;3.63;;;6.80;86.60;;;;;;5038739;28;21235;-61
2023/02/04 09:50:33;;;;;;;8.77;2.92;;;6.80;86.40;;;;;;5036376;28;20507;-61
2023/02/04 09:53:05;;;;;;;10.68;2.47;;;6.80;86.30;;;;;;5038521;28;20037;-61
2023/02/04 09:55:36;;;;;;;9.25;2.83;;;6.80;85.90;;;;;;5037924;28;20033;-61
2023/02/04 09:58:10;;;;;;;8.45;2.72;;;6.90;85.70;;;;;;5038169;28;20498;-61
2023/02/04 10:00:35;;;;;;;16.30;3.55;;;6.80;85.50;;;;;;5036188;28;20540;-59
2023/02/04 10:03:02;;;;;;;10.20;2.92;;;6.80;85.50;;;;;;5037459;28;20045;-59
2023/02/04 10:05:33;;;;;;;12.10;2.83;;;6.80;85.40;;;;;;5037770;28;20044;-59
2023/02/04 10:07:59;;;;;;;13.82;2.90;;;6.80;85.20;;;;;;5037221;28;20041;-61
2023/02/04 10:10:26;;;;;;;8.20;2.85;;;6.60;84.90;;;;;;5036015;28;20040;-60
2023/02/04 10:13:01;;;;;;;11.48;2.65;;;6.80;85.40;;;;;;5032083;28;20029;-60
2023/02/04 10:15:27;;;;;;;11.32;2.70;;;6.80;85.20;;;;;;5039536;28;20554;-61
2023/02/04 10:18:06;;;;;;;10.55;3.58;;;6.80;85.30;;;;;;5033322;28;20060;-61
2023/02/04 10:20:32;;;;;;;11.80;3.03;;;6.80;85.80;;;;;;5033857;28;20417;-60
2023/02/04 10:22:57;;;;;;;7.22;2.47;;;6.80;85.90;;;;;;5036051;28;20397;-59
2023/02/04 10:25:24;;;;;;;8.35;2.50;;;6.80;85.90;;;;;;5039034;28;20039;-60
2023/02/04 10:27:53;;;;;;;8.45;2.30;;;6.80;86.10;;;;;;5029853;28;20515;-60
2023/02/04 10:30:24;;;;;;;6.47;2.25;;;6.90;86.00;;;;;;5029538;28;20082;-60
2023/02/04 10:32:51;;;;;;;9.77;2.47;;;6.90;85.70;;;;;;5033702;28;20034;-61
2023/02/04 10:35:18;;;;;;;9.77;2.53;;;6.90;85.80;;;;;;5034240;28;20025;-59
2023/02/04 10:37:44;;;;;;;18.73;2.85;;;7.00;86.20;;;;;;5036570;28;20559;-59
2023/02/04 10:40:29;;;;;;;11.75;2.83;;;7.00;86.30;;;;;;5039303;28;20436;-58
2023/02/04 10:42:54;;;;;;;14.38;3.58;;;7.00;85.60;;;;;;5033929;28;20075;-60
2023/02/04 10:45:29;;;;;;;13.00;3.00;;;7.10;85.70;;;;;;5038806;28;20045;-61
2023/02/04 10:47:56;;;;;;;10.00;3.20;;;7.10;85.70;;;;;;5037344;28;20045;-61
2023/02/04 10:50:26;;;;;;;8.80;2.80;;;7.10;85.70;;;;;;5038095;28;20029;-59
2023/02/04 10:54:28;;;;;;;13.43;3.33;;;7.10;85.50;;;;;;5037860;28;20062;-59
2023/02/04 10:55:40;;;;;;;15.27;3.30;;;7.10;85.30;;;;;;5037925;28;20038;-59
2023/02/04 10:58:10;;;;;;;14.75;3.25;;;7.20;85.30;;;;;;5037931;28;20036;-59
2023/02/04 11:00:36;;;;;;;10.45;3.25;;;7.20;84.90;;;;;;5036459;28;20071;-59
2023/02/04 11:03:20;;;;;;;10.20;3.15;;;7.20;85.00;;;;;;5038207;28;20536;-60
2023/02/04 11:05:45;;;;;;;13.45;3.83;;;7.20;85.10;;;;;;5038646;28;20033;-57
2023/02/04 11:08:29;;;;;;;13.60;3.42;;;7.20;85.30;;;;;;5038149;28;20527;-59
2023/02/04 11:10:57;;;;;;;9.07;3.40;;;7.20;85.70;;;;;;5034307;28;20040;-60
2023/02/04 11:13:26;;;;;;;9.43;3.30;;;7.30;85.80;;;;;;5036733;28;20064;-57
2023/02/04 11:16:17;;;;;;;13.35;5.55;;;7.30;85.20;;;;;;5037772;28;20041;-59
2023/02/04 11:18:50;;;;;;;14.43;3.63;;;7.30;84.80;;;;;;5035547;28;20068;-60
2023/02/04 11:21:27;;;;;;;10.18;3.38;;;7.30;84.90;;;;;;5030625;28;20048;-59
2023/02/04 11:24:31;;;;;;;13.40;3.40;;;7.40;84.60;;;;;;5035400;28;20464;-59
2023/02/04 11:27:18;;;;;;;12.48;2.92;;;7.40;84.70;;;;;;5026942;28;20091;-60
2023/02/04 11:29:43;;;;;;;11.18;3.08;;;7.40;84.00;;;;;;5037542;28;20043;-61
2023/02/04 11:32:32;;;;;;;10.30;3.13;;;7.40;84.00;;;;;;5037922;28;20440;-60
2023/02/04 11:35:09;;;;;;;13.85;3.10;;;7.40;83.40;;;;;;5037905;28;20382;-61
2023/02/04 11:37:37;;;;;;;15.20;2.90;;;7.40;84.40;;;;;;5037247;28;20040;-58
2023/02/04 11:40:19;;;;;;;9.05;2.30;;;7.50;83.30;;;;;;5036356;28;20485;-60
2023/02/04 11:42:45;;;;;;;8.25;2.53;;;7.50;82.60;;;;;;5033055;28;20188;-58
2023/02/04 11:45:26;;;;;;;10.60;2.20;;;7.50;83.00;;;;;;5037412;28;20109;-60
2023/02/04 11:47:51;;;;;;;10.23;2.40;;;7.50;82.40;;;;;;5036994;28;20052;-59
2023/02/04 11:50:24;;;;;;;8.15;1.88;;;7.60;82.60;;;;;;5036346;28;20033;-57
2023/02/04 11:52:50;;;;;;;10.40;2.15;;;7.70;82.80;;;;;;5036486;28;20520;-59
2023/02/04 11:55:18;;;;;;;8.50;1.77;;;7.70;81.90;;;;;;5037563;28;20048;-59
2023/02/04 11:57:44;;;;;;;7.55;1.80;;;7.80;80.80;;;;;;5036486;28;20033;-59
2023/02/04 12:00:43;;;;;;;5.55;1.73;;;7.90;80.80;;;;;;5036781;28;20129;-59
2023/02/04 12:03:25;;;;;;;7.72;1.85;;;7.90;79.60;;;;;;5035130;28;20044;-58
2023/02/04 12:05:53;;;;;;;11.70;2.45;;;7.90;79.50;;;;;;5036279;28;20086;-59
2023/02/04 12:08:22;;;;;;;9.35;2.13;;;8.00;80.60;;;;;;5037187;28;20059;-58
2023/02/04 12:10:57;;;;;;;6.30;1.90;;;8.00;79.70;;;;;;5030915;28;20048;-60
2023/02/04 12:13:24;;;;;;;8.27;1.98;;;8.10;79.40;;;;;;5035808;28;20473;-61
2023/02/04 12:16:06;;;;;;;7.80;2.40;;;8.10;80.10;;;;;;5037373;28;20083;-59
2023/02/04 12:18:33;;;;;;;9.35;2.10;;;8.20;78.20;;;;;;5034949;28;20033;-59
2023/02/04 12:21:00;;;;;;;6.65;2.03;;;8.10;78.70;;;;;;5036160;28;20489;-60
2023/02/04 12:23:28;;;;;;;7.32;2.00;;;8.10;78.50;;;;;;5036807;28;20119;-60
2023/02/04 12:25:54;;;;;;;5.47;1.85;;;8.20;78.60;;;;;;5035921;28;20405;-61
2023/02/04 12:28:19;;;;;;;7.80;1.67;;;8.20;78.60;;;;;;5036676;28;20041;-59
2023/02/04 12:30:45;;;;;;;7.88;2.10;;;8.20;78.20;;;;;;5035249;28;20068;-59
2023/02/04 12:33:11;;;;;;;8.27;1.77;;;8.20;78.20;;;;;;5031169;28;20041;-58
2023/02/04 12:35:36;;;;;;;9.18;2.00;;;8.20;78.80;;;;;;5034925;28;20041;-59
2023/02/04 12:38:02;;;;;;;9.45;2.28;;;8.20;78.40;;;;;;5035199;28;20033;-59
2023/02/04 12:40:28;;;;;;;6.90;1.70;;;8.20;78.20;;;;;;5035569;28;20048;-57
2023/02/04 12:42:54;;;;;;;5.47;1.70;;;8.20;78.60;;;;;;5032955;28;20041;-59
2023/02/04 12:45:19;;;;;;;9.10;1.70;;;8.20;78.90;;;;;;5036251;28;20033;-58
2023/02/04 12:47:45;;;;;;;5.47;1.73;;;8.30;79.20;;;;;;5036076;28;20041;-59
2023/02/04 12:50:13;;;;;;;9.10;1.98;;;8.30;78.70;;;;;;5036232;28;20037;-58
2023/02/04 12:52:39;;;;;;;7.78;1.35;;;8.30;78.20;;;;;;5034521;28;20041;-59
2023/02/04 12:55:06;;;;;;;7.40;1.50;;;8.40;76.50;;;;;;5036576;28;20060;-56